Carrier Princess — CZ3582 — position and weather

sailwx.info

Track history (hours):
 
Tides and Currents Weather Stations Pressure Air Temp Water Temp Dewpoint Dewpoint Depression Visibility Wind Speed Wind Dir Waves Ship Positions

Carrier Princess

Last reported at 2016-Sep-30 22:33 UTC. Time now 2016-Sep-30 23:44 UTC.
Position N 49°07' W 123°11'.

Length 112 m; draft 3 m.

Type: Cargo ship. MMSI: 316003656.

Date/timePositionNaut miles runAvg speedWind from/ knotsBaromVisibWave heightAir tempDewpointWater temp
2016-Sep-30 22:33N 49°07' W 123°11'6 3.1
2016-Sep-30 20:33N 49°09' W 123°02'3411.2
2016-Sep-30 17:33N 49°12' W 123°53'2 2.2
2016-Sep-30 16:33N 49°10' W 123°56'0 0.0
2016-Sep-30 14:33N 49°10' W 123°56'0 0.0
2016-Sep-30 13:33N 49°10' W 123°56'1 0.4
2016-Sep-30 10:33N 49°11' W 123°54'2512.6
2016-Sep-30 08:33N 49°07' W 123°16'9 4.6
2016-Sep-30 06:33N 49°09' W 123°02'24 7.9
2016-Sep-30 03:33N 48°48' W 123°20'10 2.4
2016-Sep-29 23:33N 48°57' W 123°18'15 7.6
2016-Sep-29 21:33N 49°09' W 123°02'0 0.0
2016-Sep-29 20:33N 49°09' W 123°02'8 8.2
2016-Sep-29 19:34N 49°08' W 123°15'0 0.0
2016-Sep-29 08:33N 49°08' W 123°15'8 8.4
2016-Sep-29 07:33N 49°09' W 123°02'25 3.5
2016-Sep-29 00:29N 48°47' W 123°21'25 8.5
2016-Sep-28 21:33N 49°09' W 123°02'9 4.6
2016-Sep-28 19:33N 49°07' W 123°16'0 0.0
2016-Sep-28 08:33N 49°07' W 123°17'19 3.8
2016-Sep-28 03:31N 48°48' W 123°20'11 2.8
2016-Sep-27 23:33N 48°59' W 123°21'9 2.3
2016-Sep-27 19:33N 49°07' W 123°15'26 5.3
2016-Sep-27 14:32N 49°10' W 123°56'0 0.0
2016-Sep-27 13:05N 49°10' W 123°56'1 0.5
2016-Sep-27 10:33N 49°11' W 123°54'33 3.3
2016-Sep-27 00:33N 48°46' W 123°21'26 6.4
2016-Sep-26 20:33N 49°09' W 123°02'0 0.0
2016-Sep-26 19:33N 49°09' W 123°02'0 0.0
2016-Sep-26 15:33N 49°09' W 123°02'0 0.0
2016-Sep-26 13:33N 49°09' W 123°02'0 0.0
2016-Sep-26 11:33N 49°09' W 123°02'0 0.0
2016-Sep-26 08:33N 49°09' W 123°02'0 0.0
2016-Sep-26 02:33N 49°09' W 123°02'0 0.0
2016-Sep-26 01:33N 49°09' W 123°02'0 0.0
2016-Sep-26 00:33N 49°09' W 123°02'0 0.0
2016-Sep-25 21:33N 49°09' W 123°02'0 0.0
2016-Sep-25 17:33N 49°09' W 123°02'0 0.0
2016-Sep-25 16:33N 49°09' W 123°02'0 0.1
2016-Sep-25 15:33N 49°09' W 123°02'1 1.1
2016-Sep-25 14:33N 49°08' W 123°03'20 9.8
2016-Sep-25 12:33N 49°09' W 123°33'1110.9
2016-Sep-25 11:32N 49°13' W 123°50'5 5.0
2016-Sep-25 10:33N 49°10' W 123°56'0 0.0
2016-Sep-25 09:33N 49°10' W 123°56'10 5.0
2016-Sep-25 07:33N 49°12' W 123°41'26 8.5
2016-Sep-25 04:33N 49°09' W 123°02'0 0.0
2016-Sep-25 00:33N 49°09' W 123°02'5 2.5
2016-Sep-24 22:33N 49°06' W 123°09'8 8.2
2016-Sep-24 21:33N 49°06' W 123°22'18 8.8
2016-Sep-24 19:33N 49°13' W 123°47'6 6.4
2016-Sep-24 18:33N 49°10' W 123°56'0 0.0
2016-Sep-24 17:33N 49°10' W 123°56'0 0.0
2016-Sep-24 16:33N 49°10' W 123°56'0 0.0
2016-Sep-24 14:34N 49°10' W 123°56'0 0.0
2016-Sep-24 12:28N 49°10' W 123°56'3 1.3
2016-Sep-24 10:33N 49°12' W 123°53'1312.9
2016-Sep-24 09:33N 49°10' W 123°34'24 3.9
2016-Sep-24 03:30N 48°48' W 123°21'7 6.9
2016-Sep-24 02:29N 48°41' W 123°24'0 0.0
2016-Sep-24 01:21N 48°41' W 123°24'6 8.0
2016-Sep-24 00:33N 48°47' W 123°21'20 4.0
2016-Sep-23 19:33N 49°07' W 123°16'2512.4
2016-Sep-23 17:33N 49°11' W 123°53'2 2.0
2016-Sep-23 16:33N 49°10' W 123°56'0 0.0
2016-Sep-23 15:33N 49°10' W 123°56'0 0.0
2016-Sep-23 13:30N 49°10' W 123°56'13 3.3
2016-Sep-23 09:33N 49°11' W 123°36'22 7.3
2016-Sep-23 06:33N 49°09' W 123°02'13 6.3
2016-Sep-23 04:34N 49°01' W 123°18'1313.4
2016-Sep-23 03:33N 48°48' W 123°21'7 6.9
2016-Sep-23 02:33N 48°41' W 123°24'0 0.0
2016-Sep-23 01:31N 48°41' W 123°24'5 4.4
2016-Sep-23 00:28N 48°46' W 123°22'1213.1
2016-Sep-22 23:33N 48°57' W 123°19'16 5.2
2016-Sep-22 20:33N 49°09' W 123°02'15 0.9
2016-Sep-22 04:33N 48°58' W 123°17'1111.0
2016-Sep-22 03:33N 48°47' W 123°21'1 0.5
2016-Sep-22 00:33N 48°46' W 123°22'1211.9
2016-Sep-21 23:33N 48°57' W 123°19'1110.9
2016-Sep-21 22:34N 49°07' W 123°11'3 0.9
2016-Sep-21 19:34N 49°07' W 123°15'27 8.8
2016-Sep-21 16:33N 49°10' W 123°56'13 1.8
2016-Sep-21 09:33N 49°11' W 123°36'1312.6
2016-Sep-21 08:33N 49°06' W 123°18'4 1.5
2016-Sep-21 05:33N 49°07' W 123°12'2110.4
2016-Sep-21 03:33N 48°47' W 123°21'6 5.4
2016-Sep-21 02:21N 48°41' W 123°24'  
Track history (hours):
 
Tides and Currents Weather Stations Pressure Air Temp Water Temp Dewpoint Dewpoint Depression Visibility Wind Speed Wind Dir Waves Ship Positions

Carrier Princess

Last reported at 2016-Sep-30 22:33 UTC. Time now 2016-Sep-30 23:44 UTC.
Position N 49°07' W 123°11'.

Length 112 m; draft 3 m.

Type: Cargo ship. MMSI: 316003656.

Date/timePositionNaut miles runAvg speedWind from/ knotsBaromVisibWave heightAir tempDewpointWater temp
2016-Sep-30 22:33N 49°07' W 123°11'6 3.1
2016-Sep-30 20:33N 49°09' W 123°02'3411.2
2016-Sep-30 17:33N 49°12' W 123°53'2 2.2
2016-Sep-30 16:33N 49°10' W 123°56'0 0.0
2016-Sep-30 14:33N 49°10' W 123°56'0 0.0
2016-Sep-30 13:33N 49°10' W 123°56'1 0.4
2016-Sep-30 10:33N 49°11' W 123°54'2512.6
2016-Sep-30 08:33N 49°07' W 123°16'9 4.6
2016-Sep-30 06:33N 49°09' W 123°02'24 7.9
2016-Sep-30 03:33N 48°48' W 123°20'10 2.4
2016-Sep-29 23:33N 48°57' W 123°18'15 7.6
2016-Sep-29 21:33N 49°09' W 123°02'0 0.0
2016-Sep-29 20:33N 49°09' W 123°02'8 8.2
2016-Sep-29 19:34N 49°08' W 123°15'0 0.0
2016-Sep-29 08:33N 49°08' W 123°15'8 8.4
2016-Sep-29 07:33N 49°09' W 123°02'25 3.5
2016-Sep-29 00:29N 48°47' W 123°21'25 8.5
2016-Sep-28 21:33N 49°09' W 123°02'9 4.6
2016-Sep-28 19:33N 49°07' W 123°16'0 0.0
2016-Sep-28 08:33N 49°07' W 123°17'19 3.8
2016-Sep-28 03:31N 48°48' W 123°20'11 2.8
2016-Sep-27 23:33N 48°59' W 123°21'9 2.3
2016-Sep-27 19:33N 49°07' W 123°15'26 5.3
2016-Sep-27 14:32N 49°10' W 123°56'0 0.0
2016-Sep-27 13:05N 49°10' W 123°56'1 0.5
2016-Sep-27 10:33N 49°11' W 123°54'33 3.3
2016-Sep-27 00:33N 48°46' W 123°21'26 6.4
2016-Sep-26 20:33N 49°09' W 123°02'0 0.0
2016-Sep-26 19:33N 49°09' W 123°02'0 0.0
2016-Sep-26 15:33N 49°09' W 123°02'0 0.0
2016-Sep-26 13:33N 49°09' W 123°02'0 0.0
2016-Sep-26 11:33N 49°09' W 123°02'0 0.0
2016-Sep-26 08:33N 49°09' W 123°02'0 0.0
2016-Sep-26 02:33N 49°09' W 123°02'0 0.0
2016-Sep-26 01:33N 49°09' W 123°02'0 0.0
2016-Sep-26 00:33N 49°09' W 123°02'0 0.0
2016-Sep-25 21:33N 49°09' W 123°02'0 0.0
2016-Sep-25 17:33N 49°09' W 123°02'0 0.0
2016-Sep-25 16:33N 49°09' W 123°02'0 0.1
2016-Sep-25 15:33N 49°09' W 123°02'1 1.1
2016-Sep-25 14:33N 49°08' W 123°03'20 9.8
2016-Sep-25 12:33N 49°09' W 123°33'1110.9
2016-Sep-25 11:32N 49°13' W 123°50'5 5.0
2016-Sep-25 10:33N 49°10' W 123°56'0 0.0
2016-Sep-25 09:33N 49°10' W 123°56'10 5.0
2016-Sep-25 07:33N 49°12' W 123°41'26 8.5
2016-Sep-25 04:33N 49°09' W 123°02'0 0.0
2016-Sep-25 00:33N 49°09' W 123°02'5 2.5
2016-Sep-24 22:33N 49°06' W 123°09'8 8.2
2016-Sep-24 21:33N 49°06' W 123°22'18 8.8
2016-Sep-24 19:33N 49°13' W 123°47'6 6.4
2016-Sep-24 18:33N 49°10' W 123°56'0 0.0
2016-Sep-24 17:33N 49°10' W 123°56'0 0.0
2016-Sep-24 16:33N 49°10' W 123°56'0 0.0
2016-Sep-24 14:34N 49°10' W 123°56'0 0.0
2016-Sep-24 12:28N 49°10' W 123°56'3 1.3
2016-Sep-24 10:33N 49°12' W 123°53'1312.9
2016-Sep-24 09:33N 49°10' W 123°34'24 3.9
2016-Sep-24 03:30N 48°48' W 123°21'7 6.9
2016-Sep-24 02:29N 48°41' W 123°24'0 0.0
2016-Sep-24 01:21N 48°41' W 123°24'6 8.0
2016-Sep-24 00:33N 48°47' W 123°21'20 4.0
2016-Sep-23 19:33N 49°07' W 123°16'2512.4
2016-Sep-23 17:33N 49°11' W 123°53'2 2.0
2016-Sep-23 16:33N 49°10' W 123°56'0 0.0
2016-Sep-23 15:33N 49°10' W 123°56'0 0.0
2016-Sep-23 13:30N 49°10' W 123°56'13 3.3
2016-Sep-23 09:33N 49°11' W 123°36'22 7.3
2016-Sep-23 06:33N 49°09' W 123°02'13 6.3
2016-Sep-23 04:34N 49°01' W 123°18'1313.4
2016-Sep-23 03:33N 48°48' W 123°21'7 6.9
2016-Sep-23 02:33N 48°41' W 123°24'0 0.0
2016-Sep-23 01:31N 48°41' W 123°24'5 4.4
2016-Sep-23 00:28N 48°46' W 123°22'1213.1
2016-Sep-22 23:33N 48°57' W 123°19'16 5.2
2016-Sep-22 20:33N 49°09' W 123°02'15 0.9
2016-Sep-22 04:33N 48°58' W 123°17'1111.0
2016-Sep-22 03:33N 48°47' W 123°21'1 0.5
2016-Sep-22 00:33N 48°46' W 123°22'1211.9
2016-Sep-21 23:33N 48°57' W 123°19'1110.9
2016-Sep-21 22:34N 49°07' W 123°11'3 0.9
2016-Sep-21 19:34N 49°07' W 123°15'27 8.8
2016-Sep-21 16:33N 49°10' W 123°56'13 1.8
2016-Sep-21 09:33N 49°11' W 123°36'1312.6
2016-Sep-21 08:33N 49°06' W 123°18'4 1.5
2016-Sep-21 05:33N 49°07' W 123°12'2110.4
2016-Sep-21 03:33N 48°47' W 123°21'6 5.4
2016-Sep-21 02:21N 48°41' W 123°24'  

Dump ship's entire track history